sensor_id;sensor_type;location;lat;lon;timestamp;P1;durP1;ratioP1;P2;durP2;ratioP2
75818;SDS011;64453;51.944;9.796;2023-06-05T00:00:11;1.53;;;0.90;;
75818;SDS011;64453;51.944;9.796;2023-06-05T00:02:39;1.40;;;1.30;;
75818;SDS011;64453;51.944;9.796;2023-06-05T00:05:06;1.17;;;1.10;;
75818;SDS011;64453;51.944;9.796;2023-06-05T00:07:34;1.47;;;1.37;;
75818;SDS011;64453;51.944;9.796;2023-06-05T00:10:05;1.50;;;1.40;;
75818;SDS011;64453;51.944;9.796;2023-06-05T00:12:33;1.50;;;1.37;;
75818;SDS011;64453;51.944;9.796;2023-06-05T00:15:00;1.00;;;1.00;;
75818;SDS011;64453;51.944;9.796;2023-06-05T00:17:27;2.00;;;1.03;;
75818;SDS011;64453;51.944;9.796;2023-06-05T00:19:55;2.03;;;1.20;;
75818;SDS011;64453;51.944;9.796;2023-06-05T00:22:23;1.50;;;1.40;;
75818;SDS011;64453;51.944;9.796;2023-06-05T00:24:50;1.53;;;1.43;;
75818;SDS011;64453;51.944;9.796;2023-06-05T00:27:19;1.40;;;1.30;;
75818;SDS011;64453;51.944;9.796;2023-06-05T00:29:46;2.40;;;1.20;;
75818;SDS011;64453;51.944;9.796;2023-06-05T00:32:13;1.10;;;1.10;;
75818;SDS011;64453;51.944;9.796;2023-06-05T00:34:40;1.33;;;1.23;;
75818;SDS011;64453;51.944;9.796;2023-06-05T00:37:07;1.20;;;1.20;;
75818;SDS011;64453;51.944;9.796;2023-06-05T00:39:34;1.87;;;1.20;;
75818;SDS011;64453;51.944;9.796;2023-06-05T00:42:01;2.70;;;1.60;;
75818;SDS011;64453;51.944;9.796;2023-06-05T00:44:29;1.43;;;1.17;;
75818;SDS011;64453;51.944;9.796;2023-06-05T00:46:56;1.37;;;1.20;;
75818;SDS011;64453;51.944;9.796;2023-06-05T00:49:24;1.57;;;1.47;;
75818;SDS011;64453;51.944;9.796;2023-06-05T00:51:51;1.37;;;1.27;;
75818;SDS011;64453;51.944;9.796;2023-06-05T00:54:18;1.40;;;1.30;;
75818;SDS011;64453;51.944;9.796;2023-06-05T00:56:46;1.20;;;1.20;;
75818;SDS011;64453;51.944;9.796;2023-06-05T00:59:13;1.50;;;1.40;;
75818;SDS011;64453;51.944;9.796;2023-06-05T01:01:43;1.53;;;1.40;;
75818;SDS011;64453;51.944;9.796;2023-06-05T01:04:10;1.27;;;0.90;;
75818;SDS011;64453;51.944;9.796;2023-06-05T01:06:37;3.80;;;1.40;;
75818;SDS011;64453;51.944;9.796;2023-06-05T01:09:05;1.10;;;1.10;;
75818;SDS011;64453;51.944;9.796;2023-06-05T01:11:36;2.03;;;1.47;;
75818;SDS011;64453;51.944;9.796;2023-06-05T01:14:13;1.53;;;1.43;;
75818;SDS011;64453;51.944;9.796;2023-06-05T01:16:45;1.50;;;1.30;;
75818;SDS011;64453;51.944;9.796;2023-06-05T01:19:16;1.53;;;1.43;;
75818;SDS011;64453;51.944;9.796;2023-06-05T01:21:43;2.10;;;1.50;;
75818;SDS011;64453;51.944;9.796;2023-06-05T01:24:11;5.03;;;1.47;;
75818;SDS011;64453;51.944;9.796;2023-06-05T01:26:43;1.23;;;1.17;;
75818;SDS011;64453;51.944;9.796;2023-06-05T01:29:21;1.43;;;1.33;;
75818;SDS011;64453;51.944;9.796;2023-06-05T01:31:57;1.10;;;1.10;;
75818;SDS011;64453;51.944;9.796;2023-06-05T01:34:31;1.70;;;1.57;;
75818;SDS011;64453;51.944;9.796;2023-06-05T01:36:59;1.50;;;1.40;;
75818;SDS011;64453;51.944;9.796;2023-06-05T01:39:28;2.50;;;1.47;;
75818;SDS011;64453;51.944;9.796;2023-06-05T01:41:56;1.77;;;1.67;;
75818;SDS011;64453;51.944;9.796;2023-06-05T01:44:25;1.50;;;1.40;;
75818;SDS011;64453;51.944;9.796;2023-06-05T01:46:53;1.17;;;1.10;;
75818;SDS011;64453;51.944;9.796;2023-06-05T01:49:20;1.80;;;1.70;;
75818;SDS011;64453;51.944;9.796;2023-06-05T01:51:47;2.33;;;1.80;;
75818;SDS011;64453;51.944;9.796;2023-06-05T01:54:14;1.40;;;1.30;;
75818;SDS011;64453;51.944;9.796;2023-06-05T01:56:43;1.40;;;1.30;;
75818;SDS011;64453;51.944;9.796;2023-06-05T01:59:13;1.33;;;1.33;;
75818;SDS011;64453;51.944;9.796;2023-06-05T02:01:41;2.13;;;1.57;;
75818;SDS011;64453;51.944;9.796;2023-06-05T02:04:09;1.57;;;1.47;;
75818;SDS011;64453;51.944;9.796;2023-06-05T02:06:36;3.83;;;1.30;;
75818;SDS011;64453;51.944;9.796;2023-06-05T02:09:08;1.17;;;1.10;;
75818;SDS011;64453;51.944;9.796;2023-06-05T02:11:37;1.07;;;1.07;;
75818;SDS011;64453;51.944;9.796;2023-06-05T02:14:08;1.20;;;1.10;;
75818;SDS011;64453;51.944;9.796;2023-06-05T02:16:38;3.33;;;1.30;;
75818;SDS011;64453;51.944;9.796;2023-06-05T02:19:06;1.57;;;1.40;;
75818;SDS011;64453;51.944;9.796;2023-06-05T02:21:33;10.50;;;1.70;;
75818;SDS011;64453;51.944;9.796;2023-06-05T02:24:01;4.20;;;1.90;;
75818;SDS011;64453;51.944;9.796;2023-06-05T02:26:28;1.83;;;1.73;;
75818;SDS011;64453;51.944;9.796;2023-06-05T02:28:56;2.60;;;1.77;;
75818;SDS011;64453;51.944;9.796;2023-06-05T02:31:26;1.50;;;1.40;;
75818;SDS011;64453;51.944;9.796;2023-06-05T02:33:55;1.77;;;1.67;;
75818;SDS011;64453;51.944;9.796;2023-06-05T02:36:22;1.60;;;1.40;;
75818;SDS011;64453;51.944;9.796;2023-06-05T02:38:50;1.50;;;1.40;;
75818;SDS011;64453;51.944;9.796;2023-06-05T02:41:17;4.93;;;1.80;;
75818;SDS011;64453;51.944;9.796;2023-06-05T02:43:46;1.97;;;1.87;;
75818;SDS011;64453;51.944;9.796;2023-06-05T02:46:13;1.90;;;1.50;;
75818;SDS011;64453;51.944;9.796;2023-06-05T02:48:41;1.80;;;1.70;;
75818;SDS011;64453;51.944;9.796;2023-06-05T02:51:08;1.20;;;1.13;;
75818;SDS011;64453;51.944;9.796;2023-06-05T02:53:36;1.53;;;1.40;;
75818;SDS011;64453;51.944;9.796;2023-06-05T02:56:03;2.00;;;1.53;;
75818;SDS011;64453;51.944;9.796;2023-06-05T02:58:30;11.50;;;1.77;;
75818;SDS011;64453;51.944;9.796;2023-06-05T03:00:58;2.97;;;2.00;;
75818;SDS011;64453;51.944;9.796;2023-06-05T03:03:27;1.70;;;1.60;;
75818;SDS011;64453;51.944;9.796;2023-06-05T03:05:57;2.37;;;2.17;;
75818;SDS011;64453;51.944;9.796;2023-06-05T03:08:29;3.33;;;1.63;;
75818;SDS011;64453;51.944;9.796;2023-06-05T03:10:57;1.47;;;1.37;;
75818;SDS011;64453;51.944;9.796;2023-06-05T03:13:25;1.50;;;1.40;;
75818;SDS011;64453;51.944;9.796;2023-06-05T03:15:52;1.67;;;1.57;;
75818;SDS011;64453;51.944;9.796;2023-06-05T03:18:22;1.90;;;1.80;;
75818;SDS011;64453;51.944;9.796;2023-06-05T03:20:50;2.40;;;1.83;;
75818;SDS011;64453;51.944;9.796;2023-06-05T03:23:21;4.13;;;1.50;;
75818;SDS011;64453;51.944;9.796;2023-06-05T03:25:49;1.63;;;1.50;;
75818;SDS011;64453;51.944;9.796;2023-06-05T03:28:16;2.10;;;1.30;;
75818;SDS011;64453;51.944;9.796;2023-06-05T03:30:44;1.80;;;1.70;;
75818;SDS011;64453;51.944;9.796;2023-06-05T03:33:11;1.70;;;1.57;;
75818;SDS011;64453;51.944;9.796;2023-06-05T03:35:40;1.70;;;1.60;;
75818;SDS011;64453;51.944;9.796;2023-06-05T03:38:07;1.90;;;1.50;;
75818;SDS011;64453;51.944;9.796;2023-06-05T03:40:35;1.90;;;1.80;;
75818;SDS011;64453;51.944;9.796;2023-06-05T03:43:04;2.07;;;1.80;;
75818;SDS011;64453;51.944;9.796;2023-06-05T03:45:31;1.83;;;1.70;;
75818;SDS011;64453;51.944;9.796;2023-06-05T03:47:59;1.63;;;1.53;;
75818;SDS011;64453;51.944;9.796;2023-06-05T03:50:25;5.40;;;2.07;;
75818;SDS011;64453;51.944;9.796;2023-06-05T03:52:54;1.90;;;1.63;;
75818;SDS011;64453;51.944;9.796;2023-06-05T03:55:27;1.73;;;1.63;;
75818;SDS011;64453;51.944;9.796;2023-06-05T03:58:10;1.60;;;1.50;;
75818;SDS011;64453;51.944;9.796;2023-06-05T04:00:39;2.57;;;1.30;;
75818;SDS011;64453;51.944;9.796;2023-06-05T04:03:07;2.87;;;1.60;;
75818;SDS011;64453;51.944;9.796;2023-06-05T04:05:36;1.90;;;1.80;;
75818;SDS011;64453;51.944;9.796;2023-06-05T04:08:03;2.90;;;1.90;;
75818;SDS011;64453;51.944;9.796;2023-06-05T04:10:30;2.50;;;1.97;;
75818;SDS011;64453;51.944;9.796;2023-06-05T04:12:58;3.63;;;2.67;;
75818;SDS011;64453;51.944;9.796;2023-06-05T04:15:26;3.30;;;1.87;;
75818;SDS011;64453;51.944;9.796;2023-06-05T04:17:53;2.27;;;2.17;;
75818;SDS011;64453;51.944;9.796;2023-06-05T04:20:21;2.00;;;1.90;;
75818;SDS011;64453;51.944;9.796;2023-06-05T04:22:48;2.60;;;2.37;;
75818;SDS011;64453;51.944;9.796;2023-06-05T04:25:16;2.17;;;2.07;;
75818;SDS011;64453;51.944;9.796;2023-06-05T04:27:44;2.70;;;1.80;;
75818;SDS011;64453;51.944;9.796;2023-06-05T04:30:13;2.57;;;2.03;;
75818;SDS011;64453;51.944;9.796;2023-06-05T04:32:42;1.73;;;1.63;;
75818;SDS011;64453;51.944;9.796;2023-06-05T04:35:18;2.13;;;1.83;;
75818;SDS011;64453;51.944;9.796;2023-06-05T04:37:45;2.90;;;1.90;;
75818;SDS011;64453;51.944;9.796;2023-06-05T04:40:14;2.20;;;2.00;;
75818;SDS011;64453;51.944;9.796;2023-06-05T04:42:44;3.13;;;1.97;;
75818;SDS011;64453;51.944;9.796;2023-06-05T04:45:11;2.07;;;1.97;;
75818;SDS011;64453;51.944;9.796;2023-06-05T04:47:38;2.70;;;2.17;;
75818;SDS011;64453;51.944;9.796;2023-06-05T04:50:07;3.50;;;3.00;;
75818;SDS011;64453;51.944;9.796;2023-06-05T04:52:36;3.20;;;3.00;;
75818;SDS011;64453;51.944;9.796;2023-06-05T04:55:05;5.23;;;3.00;;
75818;SDS011;64453;51.944;9.796;2023-06-05T04:57:32;3.57;;;2.60;;
75818;SDS011;64453;51.944;9.796;2023-06-05T05:00:00;2.87;;;2.53;;
75818;SDS011;64453;51.944;9.796;2023-06-05T05:02:29;4.67;;;3.30;;
75818;SDS011;64453;51.944;9.796;2023-06-05T05:04:56;3.13;;;2.93;;
75818;SDS011;64453;51.944;9.796;2023-06-05T05:07:24;3.17;;;2.87;;
75818;SDS011;64453;51.944;9.796;2023-06-05T05:09:52;3.20;;;2.90;;
75818;SDS011;64453;51.944;9.796;2023-06-05T05:12:19;3.03;;;2.83;;
75818;SDS011;64453;51.944;9.796;2023-06-05T05:14:46;4.10;;;2.80;;
75818;SDS011;64453;51.944;9.796;2023-06-05T05:17:13;3.03;;;2.83;;
75818;SDS011;64453;51.944;9.796;2023-06-05T05:19:44;3.27;;;3.00;;
75818;SDS011;64453;51.944;9.796;2023-06-05T05:22:11;5.87;;;3.07;;
75818;SDS011;64453;51.944;9.796;2023-06-05T05:24:39;3.77;;;3.37;;
75818;SDS011;64453;51.944;9.796;2023-06-05T05:27:06;6.50;;;3.93;;
75818;SDS011;64453;51.944;9.796;2023-06-05T05:29:34;3.03;;;2.83;;
75818;SDS011;64453;51.944;9.796;2023-06-05T05:32:01;3.20;;;3.00;;
75818;SDS011;64453;51.944;9.796;2023-06-05T05:34:27;4.03;;;3.60;;
75818;SDS011;64453;51.944;9.796;2023-06-05T05:36:54;3.17;;;2.90;;
75818;SDS011;64453;51.944;9.796;2023-06-05T05:39:21;4.43;;;3.47;;
75818;SDS011;64453;51.944;9.796;2023-06-05T05:41:49;4.10;;;3.80;;
75818;SDS011;64453;51.944;9.796;2023-06-05T05:44:16;5.63;;;4.07;;
75818;SDS011;64453;51.944;9.796;2023-06-05T05:46:44;3.37;;;3.03;;
75818;SDS011;64453;51.944;9.796;2023-06-05T05:49:12;8.03;;;3.30;;
75818;SDS011;64453;51.944;9.796;2023-06-05T05:51:38;5.30;;;3.30;;
75818;SDS011;64453;51.944;9.796;2023-06-05T05:54:05;4.00;;;3.67;;
75818;SDS011;64453;51.944;9.796;2023-06-05T05:56:32;3.40;;;3.10;;
75818;SDS011;64453;51.944;9.796;2023-06-05T05:59:02;3.87;;;3.47;;
75818;SDS011;64453;51.944;9.796;2023-06-05T06:01:29;3.67;;;3.33;;
75818;SDS011;64453;51.944;9.796;2023-06-05T06:03:57;4.33;;;3.93;;
75818;SDS011;64453;51.944;9.796;2023-06-05T06:06:24;3.40;;;3.20;;
75818;SDS011;64453;51.944;9.796;2023-06-05T06:08:51;5.10;;;3.67;;
75818;SDS011;64453;51.944;9.796;2023-06-05T06:11:18;3.80;;;3.50;;
75818;SDS011;64453;51.944;9.796;2023-06-05T06:13:45;3.50;;;3.30;;
75818;SDS011;64453;51.944;9.796;2023-06-05T06:16:14;5.93;;;4.00;;
75818;SDS011;64453;51.944;9.796;2023-06-05T06:18:40;5.13;;;3.90;;
75818;SDS011;64453;51.944;9.796;2023-06-05T06:21:07;4.77;;;3.97;;
75818;SDS011;64453;51.944;9.796;2023-06-05T06:23:34;3.00;;;2.80;;
75818;SDS011;64453;51.944;9.796;2023-06-05T06:26:01;4.23;;;3.60;;
75818;SDS011;64453;51.944;9.796;2023-06-05T06:28:31;3.37;;;3.17;;
75818;SDS011;64453;51.944;9.796;2023-06-05T06:30:58;4.10;;;3.70;;
75818;SDS011;64453;51.944;9.796;2023-06-05T06:33:26;3.87;;;3.57;;
75818;SDS011;64453;51.944;9.796;2023-06-05T06:35:54;4.97;;;3.70;;
75818;SDS011;64453;51.944;9.796;2023-06-05T06:38:23;4.53;;;3.23;;
75818;SDS011;64453;51.944;9.796;2023-06-05T06:40:52;4.00;;;3.40;;
75818;SDS011;64453;51.944;9.796;2023-06-05T06:43:19;3.77;;;3.47;;
75818;SDS011;64453;51.944;9.796;2023-06-05T06:45:46;3.70;;;3.40;;
75818;SDS011;64453;51.944;9.796;2023-06-05T06:48:15;4.30;;;3.90;;
75818;SDS011;64453;51.944;9.796;2023-06-05T06:50:43;7.50;;;6.80;;
75818;SDS011;64453;51.944;9.796;2023-06-05T06:53:10;6.20;;;4.30;;
75818;SDS011;64453;51.944;9.796;2023-06-05T06:55:37;4.00;;;3.60;;
75818;SDS011;64453;51.944;9.796;2023-06-05T06:58:04;3.53;;;2.77;;
75818;SDS011;64453;51.944;9.796;2023-06-05T07:00:31;3.20;;;3.00;;
75818;SDS011;64453;51.944;9.796;2023-06-05T07:02:58;4.50;;;2.70;;
75818;SDS011;64453;51.944;9.796;2023-06-05T07:05:25;3.30;;;3.10;;
75818;SDS011;64453;51.944;9.796;2023-06-05T07:07:54;3.17;;;2.87;;
75818;SDS011;64453;51.944;9.796;2023-06-05T07:10:25;3.77;;;3.00;;
75818;SDS011;64453;51.944;9.796;2023-06-05T07:12:53;3.13;;;2.77;;
75818;SDS011;64453;51.944;9.796;2023-06-05T07:15:20;3.20;;;2.50;;
75818;SDS011;64453;51.944;9.796;2023-06-05T07:17:47;3.23;;;3.00;;
75818;SDS011;64453;51.944;9.796;2023-06-05T07:20:14;6.27;;;5.50;;
75818;SDS011;64453;51.944;9.796;2023-06-05T07:22:41;3.00;;;2.80;;
75818;SDS011;64453;51.944;9.796;2023-06-05T07:25:11;2.90;;;2.67;;
75818;SDS011;64453;51.944;9.796;2023-06-05T07:27:39;3.53;;;2.67;;
75818;SDS011;64453;51.944;9.796;2023-06-05T07:30:06;2.97;;;2.70;;
75818;SDS011;64453;51.944;9.796;2023-06-05T07:32:34;2.50;;;2.30;;
75818;SDS011;64453;51.944;9.796;2023-06-05T07:35:01;2.40;;;2.30;;
75818;SDS011;64453;51.944;9.796;2023-06-05T07:37:28;4.57;;;2.93;;
75818;SDS011;64453;51.944;9.796;2023-06-05T07:39:55;2.60;;;2.40;;
75818;SDS011;64453;51.944;9.796;2023-06-05T07:42:23;2.90;;;2.43;;
75818;SDS011;64453;51.944;9.796;2023-06-05T07:44:49;2.43;;;2.33;;
75818;SDS011;64453;51.944;9.796;2023-06-05T07:47:17;2.20;;;2.10;;
75818;SDS011;64453;51.944;9.796;2023-06-05T07:49:43;2.40;;;2.30;;
75818;SDS011;64453;51.944;9.796;2023-06-05T07:52:10;3.77;;;2.27;;
75818;SDS011;64453;51.944;9.796;2023-06-05T07:54:37;2.73;;;2.53;;
75818;SDS011;64453;51.944;9.796;2023-06-05T07:57:04;2.83;;;2.40;;
75818;SDS011;64453;51.944;9.796;2023-06-05T07:59:34;2.90;;;2.00;;
75818;SDS011;64453;51.944;9.796;2023-06-05T08:02:01;2.07;;;1.87;;
75818;SDS011;64453;51.944;9.796;2023-06-05T08:04:30;2.90;;;2.70;;
75818;SDS011;64453;51.944;9.796;2023-06-05T08:06:57;2.57;;;2.37;;
75818;SDS011;64453;51.944;9.796;2023-06-05T08:09:24;2.03;;;1.93;;
75818;SDS011;64453;51.944;9.796;2023-06-05T08:11:51;2.50;;;2.30;;
75818;SDS011;64453;51.944;9.796;2023-06-05T08:14:17;2.17;;;2.07;;
75818;SDS011;64453;51.944;9.796;2023-06-05T08:16:45;2.53;;;2.33;;
75818;SDS011;64453;51.944;9.796;2023-06-05T08:19:12;3.37;;;2.30;;
75818;SDS011;64453;51.944;9.796;2023-06-05T08:21:40;3.70;;;2.30;;
75818;SDS011;64453;51.944;9.796;2023-06-05T08:24:06;1.90;;;1.80;;
75818;SDS011;64453;51.944;9.796;2023-06-05T08:26:33;2.20;;;2.10;;
75818;SDS011;64453;51.944;9.796;2023-06-05T08:29:01;5.23;;;2.40;;
75818;SDS011;64453;51.944;9.796;2023-06-05T08:31:28;1.60;;;1.60;;
75818;SDS011;64453;51.944;9.796;2023-06-05T08:34:00;2.13;;;2.03;;
75818;SDS011;64453;51.944;9.796;2023-06-05T08:36:27;3.03;;;2.20;;
75818;SDS011;64453;51.944;9.796;2023-06-05T08:38:53;4.23;;;1.77;;
75818;SDS011;64453;51.944;9.796;2023-06-05T08:41:20;2.40;;;2.20;;
75818;SDS011;64453;51.944;9.796;2023-06-05T08:43:48;2.10;;;2.00;;
75818;SDS011;64453;51.944;9.796;2023-06-05T08:46:14;2.47;;;2.17;;
75818;SDS011;64453;51.944;9.796;2023-06-05T08:48:43;3.77;;;2.17;;
75818;SDS011;64453;51.944;9.796;2023-06-05T08:51:13;3.20;;;2.10;;
75818;SDS011;64453;51.944;9.796;2023-06-05T08:53:42;2.20;;;2.00;;
75818;SDS011;64453;51.944;9.796;2023-06-05T08:56:17;2.07;;;1.97;;
75818;SDS011;64453;51.944;9.796;2023-06-05T08:58:44;1.70;;;1.60;;
75818;SDS011;64453;51.944;9.796;2023-06-05T09:01:12;2.40;;;1.60;;
75818;SDS011;64453;51.944;9.796;2023-06-05T09:03:39;2.27;;;2.17;;
75818;SDS011;64453;51.944;9.796;2023-06-05T09:06:05;1.60;;;1.50;;
75818;SDS011;64453;51.944;9.796;2023-06-05T09:08:34;2.97;;;2.20;;
75818;SDS011;64453;51.944;9.796;2023-06-05T09:13:50;2.57;;;1.87;;
75818;SDS011;64453;51.944;9.796;2023-06-05T09:16:19;3.07;;;1.93;;
75818;SDS011;64453;51.944;9.796;2023-06-05T09:18:53;2.00;;;1.80;;
75818;SDS011;64453;51.944;9.796;2023-06-05T09:21:22;2.10;;;2.00;;
75818;SDS011;64453;51.944;9.796;2023-06-05T09:23:58;3.37;;;2.03;;
75818;SDS011;64453;51.944;9.796;2023-06-05T09:26:48;2.20;;;2.10;;
75818;SDS011;64453;51.944;9.796;2023-06-05T09:29:23;2.07;;;1.70;;
75818;SDS011;64453;51.944;9.796;2023-06-05T09:31:53;2.77;;;1.80;;
75818;SDS011;64453;51.944;9.796;2023-06-05T09:34:22;1.80;;;1.70;;
75818;SDS011;64453;51.944;9.796;2023-06-05T09:36:51;1.93;;;1.83;;
75818;SDS011;64453;51.944;9.796;2023-06-05T09:39:21;1.60;;;1.50;;
75818;SDS011;64453;51.944;9.796;2023-06-05T09:41:50;1.97;;;1.87;;
75818;SDS011;64453;51.944;9.796;2023-06-05T09:44:17;3.10;;;1.97;;
75818;SDS011;64453;51.944;9.796;2023-06-05T09:46:54;1.97;;;1.67;;
75818;SDS011;64453;51.944;9.796;2023-06-05T09:49:27;1.87;;;1.70;;
75818;SDS011;64453;51.944;9.796;2023-06-05T09:51:56;1.63;;;1.53;;
75818;SDS011;64453;51.944;9.796;2023-06-05T09:54:26;1.83;;;1.73;;
75818;SDS011;64453;51.944;9.796;2023-06-05T09:56:58;2.17;;;1.63;;
75818;SDS011;64453;51.944;9.796;2023-06-05T09:59:28;1.67;;;1.58;;
75818;SDS011;64453;51.944;9.796;2023-06-05T10:01:56;1.97;;;1.77;;
75818;SDS011;64453;51.944;9.796;2023-06-05T10:04:28;1.07;;;1.07;;
75818;SDS011;64453;51.944;9.796;2023-06-05T10:06:57;1.90;;;1.42;;
75818;SDS011;64453;51.944;9.796;2023-06-05T10:09:28;2.10;;;1.50;;
75818;SDS011;64453;51.944;9.796;2023-06-05T10:11:57;1.23;;;1.13;;
75818;SDS011;64453;51.944;9.796;2023-06-05T10:14:24;1.80;;;1.70;;
75818;SDS011;64453;51.944;9.796;2023-06-05T10:16:52;1.23;;;1.13;;
75818;SDS011;64453;51.944;9.796;2023-06-05T10:19:19;1.50;;;1.40;;
75818;SDS011;64453;51.944;9.796;2023-06-05T10:21:47;1.50;;;1.40;;
75818;SDS011;64453;51.944;9.796;2023-06-05T10:24:15;1.38;;;1.27;;
75818;SDS011;64453;51.944;9.796;2023-06-05T10:27:01;1.92;;;1.42;;
75818;SDS011;64453;51.944;9.796;2023-06-05T10:30:19;1.98;;;1.77;;
75818;SDS011;64453;51.944;9.796;2023-06-05T10:33:31;1.38;;;1.25;;
75818;SDS011;64453;51.944;9.796;2023-06-05T10:36:32;1.63;;;1.27;;
75818;SDS011;64453;51.944;9.796;2023-06-05T10:39:14;4.53;;;1.77;;
75818;SDS011;64453;51.944;9.796;2023-06-05T10:41:42;1.50;;;1.40;;
75818;SDS011;64453;51.944;9.796;2023-06-05T10:44:10;1.30;;;1.20;;
75818;SDS011;64453;51.944;9.796;2023-06-05T10:46:39;1.20;;;1.15;;
75818;SDS011;64453;51.944;9.796;2023-06-05T10:49:07;1.60;;;1.50;;
75818;SDS011;64453;51.944;9.796;2023-06-05T10:51:38;1.67;;;1.63;;
75818;SDS011;64453;51.944;9.796;2023-06-05T10:54:08;1.80;;;1.67;;
75818;SDS011;64453;51.944;9.796;2023-06-05T10:56:56;1.67;;;1.55;;
75818;SDS011;64453;51.944;9.796;2023-06-05T10:59:30;1.58;;;1.48;;
75818;SDS011;64453;51.944;9.796;2023-06-05T11:05:02;2.15;;;1.50;;
75818;SDS011;64453;51.944;9.796;2023-06-05T11:07:31;1.95;;;1.85;;
75818;SDS011;64453;51.944;9.796;2023-06-05T11:10:03;1.60;;;1.50;;
75818;SDS011;64453;51.944;9.796;2023-06-05T11:15:45;2.65;;;1.83;;
75818;SDS011;64453;51.944;9.796;2023-06-05T11:20:59;2.15;;;1.90;;
75818;SDS011;64453;51.944;9.796;2023-06-05T11:23:27;1.95;;;1.75;;
75818;SDS011;64453;51.944;9.796;2023-06-05T11:25:55;3.20;;;1.98;;
75818;SDS011;64453;51.944;9.796;2023-06-05T11:31:11;2.10;;;1.90;;
75818;SDS011;64453;51.944;9.796;2023-06-05T11:33:37;2.00;;;1.90;;
75818;SDS011;64453;51.944;9.796;2023-06-05T11:36:05;3.30;;;2.30;;
75818;SDS011;64453;51.944;9.796;2023-06-05T11:38:37;2.65;;;2.45;;
75818;SDS011;64453;51.944;9.796;2023-06-05T11:41:07;2.00;;;1.90;;
75818;SDS011;64453;51.944;9.796;2023-06-05T11:43:41;2.00;;;1.80;;
75818;SDS011;64453;51.944;9.796;2023-06-05T11:46:10;3.95;;;1.80;;
75818;SDS011;64453;51.944;9.796;2023-06-05T11:48:42;1.90;;;1.80;;
75818;SDS011;64453;51.944;9.796;2023-06-05T11:51:10;2.20;;;2.00;;
75818;SDS011;64453;51.944;9.796;2023-06-05T11:53:43;2.72;;;1.75;;
75818;SDS011;64453;51.944;9.796;2023-06-05T11:56:15;2.10;;;2.00;;
75818;SDS011;64453;51.944;9.796;2023-06-05T11:58:42;2.30;;;2.10;;
75818;SDS011;64453;51.944;9.796;2023-06-05T12:01:13;2.53;;;2.33;;
75818;SDS011;64453;51.944;9.796;2023-06-05T12:03:43;3.85;;;2.25;;
75818;SDS011;64453;51.944;9.796;2023-06-05T12:06:11;2.42;;;2.22;;
75818;SDS011;64453;51.944;9.796;2023-06-05T12:08:39;2.20;;;2.10;;
75818;SDS011;64453;51.944;9.796;2023-06-05T12:11:21;2.35;;;2.25;;
75818;SDS011;64453;51.944;9.796;2023-06-05T12:13:50;2.45;;;1.88;;
75818;SDS011;64453;51.944;9.796;2023-06-05T12:16:20;4.63;;;2.42;;
75818;SDS011;64453;51.944;9.796;2023-06-05T12:18:58;3.92;;;2.42;;
75818;SDS011;64453;51.944;9.796;2023-06-05T12:21:26;2.38;;;2.05;;
75818;SDS011;64453;51.944;9.796;2023-06-05T12:24:00;2.22;;;2.13;;
75818;SDS011;64453;51.944;9.796;2023-06-05T12:26:28;2.45;;;2.22;;
75818;SDS011;64453;51.944;9.796;2023-06-05T12:29:02;4.50;;;2.88;;
75818;SDS011;64453;51.944;9.796;2023-06-05T12:31:36;4.38;;;2.28;;
75818;SDS011;64453;51.944;9.796;2023-06-05T12:34:05;4.93;;;2.50;;
75818;SDS011;64453;51.944;9.796;2023-06-05T12:36:37;2.25;;;2.03;;
75818;SDS011;64453;51.944;9.796;2023-06-05T12:39:06;2.70;;;2.60;;
75818;SDS011;64453;51.944;9.796;2023-06-05T12:41:36;2.38;;;2.22;;
75818;SDS011;64453;51.944;9.796;2023-06-05T12:44:03;2.15;;;2.05;;
75818;SDS011;64453;51.944;9.796;2023-06-05T12:46:31;3.42;;;2.67;;
75818;SDS011;64453;51.944;9.796;2023-06-05T12:49:00;2.35;;;2.25;;
75818;SDS011;64453;51.944;9.796;2023-06-05T12:51:28;3.08;;;2.88;;
75818;SDS011;64453;51.944;9.796;2023-06-05T12:53:56;3.22;;;3.03;;
75818;SDS011;64453;51.944;9.796;2023-06-05T12:56:23;3.08;;;2.55;;
75818;SDS011;64453;51.944;9.796;2023-06-05T12:58:52;3.92;;;2.92;;
75818;SDS011;64453;51.944;9.796;2023-06-05T13:01:20;3.30;;;2.90;;
75818;SDS011;64453;51.944;9.796;2023-06-05T13:03:48;3.40;;;2.90;;
75818;SDS011;64453;51.944;9.796;2023-06-05T13:06:16;3.70;;;3.50;;
75818;SDS011;64453;51.944;9.796;2023-06-05T13:08:43;4.82;;;3.65;;
75818;SDS011;64453;51.944;9.796;2023-06-05T13:11:11;3.33;;;3.13;;
75818;SDS011;64453;51.944;9.796;2023-06-05T13:13:39;2.97;;;2.78;;
75818;SDS011;64453;51.944;9.796;2023-06-05T13:16:06;3.30;;;3.10;;
75818;SDS011;64453;51.944;9.796;2023-06-05T13:18:33;3.17;;;2.80;;
75818;SDS011;64453;51.944;9.796;2023-06-05T13:21:02;2.97;;;2.78;;
75818;SDS011;64453;51.944;9.796;2023-06-05T13:23:31;4.45;;;3.33;;
75818;SDS011;64453;51.944;9.796;2023-06-05T13:25:58;3.20;;;3.00;;
75818;SDS011;64453;51.944;9.796;2023-06-05T13:28:26;3.03;;;2.83;;
75818;SDS011;64453;51.944;9.796;2023-06-05T13:30:52;3.50;;;3.20;;
75818;SDS011;64453;51.944;9.796;2023-06-05T13:33:21;3.10;;;2.90;;
75818;SDS011;64453;51.944;9.796;2023-06-05T13:35:49;3.03;;;2.83;;
75818;SDS011;64453;51.944;9.796;2023-06-05T13:38:17;5.45;;;2.85;;
75818;SDS011;64453;51.944;9.796;2023-06-05T13:40:45;2.60;;;2.40;;
75818;SDS011;64453;51.944;9.796;2023-06-05T13:43:14;2.60;;;2.40;;
75818;SDS011;64453;51.944;9.796;2023-06-05T13:45:41;4.60;;;2.50;;
75818;SDS011;64453;51.944;9.796;2023-06-05T13:48:08;2.17;;;2.08;;
75818;SDS011;64453;51.944;9.796;2023-06-05T13:50:35;3.40;;;3.10;;
75818;SDS011;64453;51.944;9.796;2023-06-05T13:53:02;2.33;;;2.13;;
75818;SDS011;64453;51.944;9.796;2023-06-05T13:55:28;2.33;;;2.22;;
75818;SDS011;64453;51.944;9.796;2023-06-05T13:57:57;2.83;;;2.63;;
75818;SDS011;64453;51.944;9.796;2023-06-05T14:00:26;3.10;;;2.90;;
75818;SDS011;64453;51.944;9.796;2023-06-05T14:02:54;2.50;;;2.30;;
75818;SDS011;64453;51.944;9.796;2023-06-05T14:05:21;2.20;;;2.00;;
75818;SDS011;64453;51.944;9.796;2023-06-05T14:07:49;2.20;;;2.10;;
75818;SDS011;64453;51.944;9.796;2023-06-05T14:10:17;1.83;;;1.73;;
75818;SDS011;64453;51.944;9.796;2023-06-05T14:12:45;3.13;;;2.45;;
75818;SDS011;64453;51.944;9.796;2023-06-05T14:15:13;2.45;;;2.17;;
75818;SDS011;64453;51.944;9.796;2023-06-05T14:17:42;1.98;;;1.88;;
75818;SDS011;64453;51.944;9.796;2023-06-05T14:20:10;2.15;;;1.63;;
75818;SDS011;64453;51.944;9.796;2023-06-05T14:22:37;7.18;;;2.15;;
75818;SDS011;64453;51.944;9.796;2023-06-05T14:25:04;3.35;;;1.70;;
75818;SDS011;64453;51.944;9.796;2023-06-05T14:27:32;3.42;;;1.75;;
75818;SDS011;64453;51.944;9.796;2023-06-05T14:29:59;2.08;;;1.85;;
75818;SDS011;64453;51.944;9.796;2023-06-05T14:32:27;2.60;;;1.50;;
75818;SDS011;64453;51.944;9.796;2023-06-05T14:34:54;2.88;;;1.63;;
75818;SDS011;64453;51.944;9.796;2023-06-05T14:37:21;1.60;;;1.50;;
75818;SDS011;64453;51.944;9.796;2023-06-05T14:39:48;2.13;;;2.03;;
75818;SDS011;64453;51.944;9.796;2023-06-05T14:42:16;1.73;;;1.63;;
75818;SDS011;64453;51.944;9.796;2023-06-05T14:44:43;1.70;;;1.55;;
75818;SDS011;64453;51.944;9.796;2023-06-05T14:47:09;1.60;;;1.50;;
75818;SDS011;64453;51.944;9.796;2023-06-05T14:49:38;1.75;;;1.65;;
75818;SDS011;64453;51.944;9.796;2023-06-05T14:52:05;4.68;;;1.80;;
75818;SDS011;64453;51.944;9.796;2023-06-05T14:54:31;1.80;;;1.70;;
75818;SDS011;64453;51.944;9.796;2023-06-05T14:56:58;1.70;;;1.60;;
75818;SDS011;64453;51.944;9.796;2023-06-05T14:59:25;1.80;;;1.70;;
75818;SDS011;64453;51.944;9.796;2023-06-05T15:01:52;5.00;;;1.80;;
75818;SDS011;64453;51.944;9.796;2023-06-05T15:04:19;1.75;;;1.65;;
75818;SDS011;64453;51.944;9.796;2023-06-05T15:06:47;1.90;;;1.80;;
75818;SDS011;64453;51.944;9.796;2023-06-05T15:09:16;4.32;;;2.25;;
75818;SDS011;64453;51.944;9.796;2023-06-05T15:11:43;1.58;;;1.48;;